sensor_id;sensor_type;location;lat;lon;timestamp;pressure;altitude;pressure_sealevel;temperature;humidity
76156;BME280;64906;51.290;7.348;2023-03-17T00:01:17;98049.63;;;20.81;38.75
76156;BME280;64906;51.290;7.348;2023-03-17T00:03:44;98044.97;;;20.82;39.10
76156;BME280;64906;51.290;7.348;2023-03-17T00:06:17;98048.81;;;20.81;38.86
76156;BME280;64906;51.290;7.348;2023-03-17T00:08:43;98040.59;;;20.81;38.63
76156;BME280;64906;51.290;7.348;2023-03-17T00:11:14;98043.31;;;20.81;38.66
76156;BME280;64906;51.290;7.348;2023-03-17T00:13:40;98037.84;;;20.81;38.90
76156;BME280;64906;51.290;7.348;2023-03-17T00:16:11;98035.41;;;20.79;38.52
76156;BME280;64906;51.290;7.348;2023-03-17T00:18:37;98020.56;;;20.80;38.77
76156;BME280;64906;51.290;7.348;2023-03-17T00:21:02;98026.69;;;20.77;38.63
76156;BME280;64906;51.290;7.348;2023-03-17T00:23:28;98015.38;;;20.79;38.61
76156;BME280;64906;51.290;7.348;2023-03-17T00:25:53;98032.47;;;20.76;39.04
76156;BME280;64906;51.290;7.348;2023-03-17T00:28:21;98029.72;;;20.76;39.05
76156;BME280;64906;51.290;7.348;2023-03-17T00:30:48;98021.81;;;20.74;38.88
76156;BME280;64906;51.290;7.348;2023-03-17T00:33:15;98046.00;;;20.72;38.72
76156;BME280;64906;51.290;7.348;2023-03-17T00:35:41;98052.00;;;20.74;38.87
76156;BME280;64906;51.290;7.348;2023-03-17T00:38:15;98052.00;;;20.74;38.79
76156;BME280;64906;51.290;7.348;2023-03-17T00:40:41;98052.94;;;20.70;38.75
76156;BME280;64906;51.290;7.348;2023-03-17T00:43:07;98058.94;;;20.72;38.65
76156;BME280;64906;51.290;7.348;2023-03-17T00:45:32;98060.66;;;20.68;38.60
76156;BME280;64906;51.290;7.348;2023-03-17T00:47:58;98061.16;;;20.70;38.89
76156;BME280;64906;51.290;7.348;2023-03-17T00:50:26;98061.78;;;20.67;38.93
76156;BME280;64906;51.290;7.348;2023-03-17T00:52:54;98074.38;;;20.68;38.71
76156;BME280;64906;51.290;7.348;2023-03-17T00:55:20;98068.56;;;20.69;38.85
76156;BME280;64906;51.290;7.348;2023-03-17T00:57:47;98069.38;;;20.70;38.77
76156;BME280;64906;51.290;7.348;2023-03-17T01:00:23;98055.16;;;20.68;39.03
76156;BME280;64906;51.290;7.348;2023-03-17T01:02:54;98051.44;;;20.64;38.77
76156;BME280;64906;51.290;7.348;2023-03-17T01:05:21;98064.66;;;20.62;38.82
76156;BME280;64906;51.290;7.348;2023-03-17T01:07:49;98054.50;;;20.62;38.88
76156;BME280;64906;51.290;7.348;2023-03-17T01:10:22;98052.66;;;20.58;38.86
76156;BME280;64906;51.290;7.348;2023-03-17T01:12:48;98040.28;;;20.60;39.05
76156;BME280;64906;51.290;7.348;2023-03-17T01:15:14;98033.16;;;20.59;38.91
76156;BME280;64906;51.290;7.348;2023-03-17T01:17:41;98029.81;;;20.62;38.73
76156;BME280;64906;51.290;7.348;2023-03-17T01:20:09;98017.22;;;20.61;38.80
76156;BME280;64906;51.290;7.348;2023-03-17T01:22:35;98040.59;;;20.59;39.00
76156;BME280;64906;51.290;7.348;2023-03-17T01:25:01;98038.97;;;20.58;38.90
76156;BME280;64906;51.290;7.348;2023-03-17T01:27:27;98024.44;;;20.57;39.02
76156;BME280;64906;51.290;7.348;2023-03-17T01:29:53;98035.91;;;20.59;39.07
76156;BME280;64906;51.290;7.348;2023-03-17T01:32:20;98039.25;;;20.56;38.77
76156;BME280;64906;51.290;7.348;2023-03-17T01:34:46;98041.22;;;20.56;39.03
76156;BME280;64906;51.290;7.348;2023-03-17T01:37:11;98043.16;;;20.55;38.84
76156;BME280;64906;51.290;7.348;2023-03-17T01:39:39;98041.81;;;20.53;38.86
76156;BME280;64906;51.290;7.348;2023-03-17T01:42:05;98041.03;;;20.52;39.16
76156;BME280;64906;51.290;7.348;2023-03-17T01:44:31;98029.88;;;20.49;38.77
76156;BME280;64906;51.290;7.348;2023-03-17T01:46:57;98027.63;;;20.51;38.80
76156;BME280;64906;51.290;7.348;2023-03-17T01:49:35;98021.00;;;20.52;38.84
76156;BME280;64906;51.290;7.348;2023-03-17T01:52:09;98020.50;;;20.50;38.76
76156;BME280;64906;51.290;7.348;2023-03-17T01:54:43;98023.25;;;20.50;39.08
76156;BME280;64906;51.290;7.348;2023-03-17T02:00:00;98014.03;;;20.46;38.86
76156;BME280;64906;51.290;7.348;2023-03-17T02:02:34;98008.56;;;20.46;39.17
76156;BME280;64906;51.290;7.348;2023-03-17T02:05:00;98007.75;;;20.45;39.01
76156;BME280;64906;51.290;7.348;2023-03-17T02:07:27;97995.75;;;20.41;39.33
76156;BME280;64906;51.290;7.348;2023-03-17T02:09:54;97984.97;;;20.45;39.17
76156;BME280;64906;51.290;7.348;2023-03-17T02:12:20;97973.50;;;20.43;39.01
76156;BME280;64906;51.290;7.348;2023-03-17T02:14:48;97964.19;;;20.44;38.92
76156;BME280;64906;51.290;7.348;2023-03-17T02:17:13;97958.69;;;20.44;38.94
76156;BME280;64906;51.290;7.348;2023-03-17T02:19:39;97965.28;;;20.43;38.81
76156;BME280;64906;51.290;7.348;2023-03-17T02:22:04;97961.25;;;20.40;39.19
76156;BME280;64906;51.290;7.348;2023-03-17T02:24:38;97957.69;;;20.40;38.84
76156;BME280;64906;51.290;7.348;2023-03-17T02:27:15;97957.69;;;20.40;38.96
76156;BME280;64906;51.290;7.348;2023-03-17T02:29:41;97957.81;;;20.35;39.02
76156;BME280;64906;51.290;7.348;2023-03-17T02:32:11;97959.66;;;20.39;38.92
76156;BME280;64906;51.290;7.348;2023-03-17T02:34:36;97952.72;;;20.42;39.13
76156;BME280;64906;51.290;7.348;2023-03-17T02:37:02;97945.44;;;20.37;39.27
76156;BME280;64906;51.290;7.348;2023-03-17T02:39:28;97944.13;;;20.35;38.88
76156;BME280;64906;51.290;7.348;2023-03-17T02:41:53;97939.94;;;20.37;39.21
76156;BME280;64906;51.290;7.348;2023-03-17T02:44:18;97935.28;;;20.38;39.09
76156;BME280;64906;51.290;7.348;2023-03-17T02:46:44;97940.38;;;20.31;38.95
76156;BME280;64906;51.290;7.348;2023-03-17T02:49:09;97937.53;;;20.36;39.03
76156;BME280;64906;51.290;7.348;2023-03-17T02:51:35;97934.28;;;20.34;39.18
76156;BME280;64906;51.290;7.348;2023-03-17T02:54:01;97935.88;;;20.35;39.02
76156;BME280;64906;51.290;7.348;2023-03-17T02:56:26;97944.75;;;20.32;38.99
76156;BME280;64906;51.290;7.348;2023-03-17T02:58:52;97940.91;;;20.33;39.14
76156;BME280;64906;51.290;7.348;2023-03-17T03:01:17;97942.00;;;20.32;39.22
76156;BME280;64906;51.290;7.348;2023-03-17T03:03:43;97941.50;;;20.30;38.98
76156;BME280;64906;51.290;7.348;2023-03-17T03:06:08;97953.59;;;20.29;39.05
76156;BME280;64906;51.290;7.348;2023-03-17T03:08:34;97954.41;;;20.29;39.25
76156;BME280;64906;51.290;7.348;2023-03-17T03:10:59;97968.13;;;20.29;38.91
76156;BME280;64906;51.290;7.348;2023-03-17T03:13:26;97953.41;;;20.25;39.31
76156;BME280;64906;51.290;7.348;2023-03-17T03:15:52;97965.19;;;20.26;39.30
76156;BME280;64906;51.290;7.348;2023-03-17T03:18:17;97972.91;;;20.24;39.30
76156;BME280;64906;51.290;7.348;2023-03-17T03:20:43;97966.16;;;20.30;38.91
76156;BME280;64906;51.290;7.348;2023-03-17T03:23:08;97961.31;;;20.27;39.29
76156;BME280;64906;51.290;7.348;2023-03-17T03:25:34;97972.06;;;20.23;39.33
76156;BME280;64906;51.290;7.348;2023-03-17T03:28:02;97974.22;;;20.26;39.02
76156;BME280;64906;51.290;7.348;2023-03-17T03:30:27;97966.00;;;20.26;38.97
76156;BME280;64906;51.290;7.348;2023-03-17T03:32:52;97965.50;;;20.24;38.99
76156;BME280;64906;51.290;7.348;2023-03-17T03:35:18;97967.22;;;20.20;39.32
76156;BME280;64906;51.290;7.348;2023-03-17T03:37:43;97951.59;;;20.21;39.12
76156;BME280;64906;51.290;7.348;2023-03-17T03:40:09;97957.69;;;20.18;39.19
76156;BME280;64906;51.290;7.348;2023-03-17T03:42:34;97953.19;;;20.22;39.02
76156;BME280;64906;51.290;7.348;2023-03-17T03:44:59;97952.41;;;20.21;39.29
76156;BME280;64906;51.290;7.348;2023-03-17T03:47:25;97946.44;;;20.19;38.99
76156;BME280;64906;51.290;7.348;2023-03-17T03:49:50;97948.53;;;20.22;38.94
76156;BME280;64906;51.290;7.348;2023-03-17T03:52:16;97933.81;;;20.18;39.08
76156;BME280;64906;51.290;7.348;2023-03-17T03:54:41;97940.44;;;20.17;39.54
76156;BME280;64906;51.290;7.348;2023-03-17T03:57:06;97943.19;;;20.17;38.95
76156;BME280;64906;51.290;7.348;2023-03-17T03:59:32;97951.72;;;20.16;39.23
76156;BME280;64906;51.290;7.348;2023-03-17T04:01:57;97941.34;;;20.13;39.08
76156;BME280;64906;51.290;7.348;2023-03-17T04:04:22;97933.53;;;20.20;38.99
76156;BME280;64906;51.290;7.348;2023-03-17T04:06:47;97932.31;;;20.12;39.09
76156;BME280;64906;51.290;7.348;2023-03-17T04:09:13;97945.09;;;20.17;39.24
76156;BME280;64906;51.290;7.348;2023-03-17T04:11:38;97945.69;;;20.14;39.32
76156;BME280;64906;51.290;7.348;2023-03-17T04:14:03;97944.91;;;20.13;39.05
76156;BME280;64906;51.290;7.348;2023-03-17T04:16:30;97938.09;;;20.11;39.02
76156;BME280;64906;51.290;7.348;2023-03-17T04:18:56;97939.72;;;20.12;39.37
76156;BME280;64906;51.290;7.348;2023-03-17T04:21:21;97940.53;;;20.12;39.21
76156;BME280;64906;51.290;7.348;2023-03-17T04:23:47;97937.28;;;20.10;39.33
76156;BME280;64906;51.290;7.348;2023-03-17T04:26:12;97938.09;;;20.11;39.06
76156;BME280;64906;51.290;7.348;2023-03-17T04:28:38;97943.06;;;20.08;39.32
76156;BME280;64906;51.290;7.348;2023-03-17T04:31:03;97938.72;;;20.08;39.30
76156;BME280;64906;51.290;7.348;2023-03-17T04:33:29;97943.59;;;20.11;39.07
76156;BME280;64906;51.290;7.348;2023-03-17T04:35:54;97946.94;;;20.08;39.04
76156;BME280;64906;51.290;7.348;2023-03-17T04:38:19;97952.44;;;20.08;39.24
76156;BME280;64906;51.290;7.348;2023-03-17T04:40:45;97943.69;;;20.05;39.41
76156;BME280;64906;51.290;7.348;2023-03-17T04:43:11;97946.94;;;20.08;39.32
76156;BME280;64906;51.290;7.348;2023-03-17T04:45:36;97941.78;;;20.06;39.31
76156;BME280;64906;51.290;7.348;2023-03-17T04:48:01;97949.19;;;20.05;39.10
76156;BME280;64906;51.290;7.348;2023-03-17T04:50:27;97951.41;;;20.03;39.32
76156;BME280;64906;51.290;7.348;2023-03-17T04:52:52;97945.94;;;20.03;39.28
76156;BME280;64906;51.290;7.348;2023-03-17T04:55:17;97947.19;;;19.97;39.35
76156;BME280;64906;51.290;7.348;2023-03-17T04:57:43;97948.19;;;20.01;39.27
76156;BME280;64906;51.290;7.348;2023-03-17T05:00:11;97955.09;;;19.99;39.25
76156;BME280;64906;51.290;7.348;2023-03-17T05:02:36;97955.91;;;19.99;39.39
76156;BME280;64906;51.290;7.348;2023-03-17T05:05:03;97949.59;;;19.99;39.54
76156;BME280;64906;51.290;7.348;2023-03-17T05:07:29;97952.53;;;20.02;39.30
76156;BME280;64906;51.290;7.348;2023-03-17T05:09:54;97962.19;;;20.00;39.40
76156;BME280;64906;51.290;7.348;2023-03-17T05:12:21;97941.28;;;20.04;39.20
76156;BME280;64906;51.290;7.348;2023-03-17T05:14:46;97944.31;;;20.02;39.41
76156;BME280;64906;51.290;7.348;2023-03-17T05:17:12;97938.97;;;19.97;39.52
76156;BME280;64906;51.290;7.348;2023-03-17T05:19:38;97943.03;;;20.00;39.61
76156;BME280;64906;51.290;7.348;2023-03-17T05:22:03;97947.38;;;20.01;39.67
76156;BME280;64906;51.290;7.348;2023-03-17T05:24:28;97954.97;;;20.04;39.65
76156;BME280;64906;51.290;7.348;2023-03-17T05:26:54;97963.19;;;20.04;39.28
76156;BME280;64906;51.290;7.348;2023-03-17T05:29:19;97962.88;;;20.05;39.39
76156;BME280;64906;51.290;7.348;2023-03-17T05:31:45;97965.09;;;20.03;39.57
76156;BME280;64906;51.290;7.348;2023-03-17T05:34:11;97963.06;;;20.09;39.47
76156;BME280;64906;51.290;7.348;2023-03-17T05:36:36;97966.63;;;20.10;39.53
76156;BME280;64906;51.290;7.348;2023-03-17T05:39:03;97966.00;;;20.13;39.74
76156;BME280;64906;51.290;7.348;2023-03-17T05:41:29;97969.06;;;20.11;39.63
76156;BME280;64906;51.290;7.348;2023-03-17T05:43:55;97956.16;;;20.12;39.56
76156;BME280;64906;51.290;7.348;2023-03-17T05:46:20;97948.44;;;20.14;39.51
76156;BME280;64906;51.290;7.348;2023-03-17T05:48:46;97962.44;;;20.12;39.77
76156;BME280;64906;51.290;7.348;2023-03-17T05:51:12;97960.53;;;20.13;39.53
76156;BME280;64906;51.290;7.348;2023-03-17T05:53:37;97962.44;;;20.12;39.73
76156;BME280;64906;51.290;7.348;2023-03-17T05:56:03;97959.72;;;20.12;39.91
76156;BME280;64906;51.290;7.348;2023-03-17T05:58:29;97952.31;;;20.13;39.64
76156;BME280;64906;51.290;7.348;2023-03-17T06:00:55;97942.44;;;20.12;39.86
76156;BME280;64906;51.290;7.348;2023-03-17T06:03:21;97944.91;;;20.13;39.63
76156;BME280;64906;51.290;7.348;2023-03-17T06:05:46;97938.59;;;20.13;39.91
76156;BME280;64906;51.290;7.348;2023-03-17T06:08:12;97941.03;;;20.14;39.97
76156;BME280;64906;51.290;7.348;2023-03-17T06:10:38;97942.44;;;20.12;39.93
76156;BME280;64906;51.290;7.348;2023-03-17T06:13:03;97938.59;;;20.13;39.91
76156;BME280;64906;51.290;7.348;2023-03-17T06:15:29;97943.78;;;20.14;39.81
76156;BME280;64906;51.290;7.348;2023-03-17T06:17:54;97944.91;;;20.13;39.92
76156;BME280;64906;51.290;7.348;2023-03-17T06:20:20;97952.31;;;20.13;39.99
76156;BME280;64906;51.290;7.348;2023-03-17T06:22:46;97958.59;;;20.13;39.92
76156;BME280;64906;51.290;7.348;2023-03-17T06:25:11;97952.84;;;20.15;40.03
76156;BME280;64906;51.290;7.348;2023-03-17T06:27:38;97954.44;;;20.16;40.04
76156;BME280;64906;51.290;7.348;2023-03-17T06:30:05;97957.69;;;20.18;39.98
76156;BME280;64906;51.290;7.348;2023-03-17T06:32:31;97955.47;;;20.20;39.99
76156;BME280;64906;51.290;7.348;2023-03-17T06:34:57;97955.75;;;20.18;39.92
76156;BME280;64906;51.290;7.348;2023-03-17T06:37:23;97955.47;;;20.20;39.90
76156;BME280;64906;51.290;7.348;2023-03-17T06:39:48;97949.16;;;20.19;40.14
76156;BME280;64906;51.290;7.348;2023-03-17T06:42:13;97951.91;;;20.19;39.68
76156;BME280;64906;51.290;7.348;2023-03-17T06:44:39;97962.88;;;20.19;40.01
76156;BME280;64906;51.290;7.348;2023-03-17T06:47:05;97962.56;;;20.21;39.86
76156;BME280;64906;51.290;7.348;2023-03-17T06:49:31;97953.81;;;20.19;39.74
76156;BME280;64906;51.290;7.348;2023-03-17T06:51:57;97953.50;;;20.20;39.69
76156;BME280;64906;51.290;7.348;2023-03-17T06:54:23;97961.75;;;20.20;39.84
76156;BME280;64906;51.290;7.348;2023-03-17T06:56:50;97957.91;;;20.21;39.68
76156;BME280;64906;51.290;7.348;2023-03-17T06:59:15;97949.38;;;20.23;39.84
76156;BME280;64906;51.290;7.348;2023-03-17T07:01:40;97963.06;;;20.23;39.77
76156;BME280;64906;51.290;7.348;2023-03-17T07:04:06;97954.34;;;20.21;39.58
76156;BME280;64906;51.290;7.348;2023-03-17T07:06:31;97950.16;;;20.23;39.85
76156;BME280;64906;51.290;7.348;2023-03-17T07:08:58;97952.28;;;20.26;39.70
76156;BME280;64906;51.290;7.348;2023-03-17T07:11:23;97951.16;;;20.27;39.75
76156;BME280;64906;51.290;7.348;2023-03-17T07:13:49;97946.00;;;20.26;39.88
76156;BME280;64906;51.290;7.348;2023-03-17T07:16:15;97954.22;;;20.26;39.80
76156;BME280;64906;51.290;7.348;2023-03-17T07:18:43;97947.59;;;20.27;39.85
76156;BME280;64906;51.290;7.348;2023-03-17T07:21:09;97953.59;;;20.29;39.61
76156;BME280;64906;51.290;7.348;2023-03-17T07:23:34;97949.72;;;20.30;39.81
76156;BME280;64906;51.290;7.348;2023-03-17T07:26:00;97956.03;;;20.30;39.49
76156;BME280;64906;51.290;7.348;2023-03-17T07:28:27;97948.94;;;20.29;39.63
76156;BME280;64906;51.290;7.348;2023-03-17T07:30:52;97950.53;;;20.30;39.77
76156;BME280;64906;51.290;7.348;2023-03-17T07:33:19;97949.72;;;20.30;39.72
76156;BME280;64906;51.290;7.348;2023-03-17T07:35:48;97945.88;;;20.31;39.68
76156;BME280;64906;51.290;7.348;2023-03-17T07:38:14;97952.66;;;20.33;39.43
76156;BME280;64906;51.290;7.348;2023-03-17T07:40:40;97952.97;;;20.32;39.59
76156;BME280;64906;51.290;7.348;2023-03-17T07:43:06;97952.66;;;20.33;39.40
76156;BME280;64906;51.290;7.348;2023-03-17T07:45:32;97949.13;;;20.33;39.67
76156;BME280;64906;51.290;7.348;2023-03-17T07:48:00;97957.81;;;20.35;39.50
76156;BME280;64906;51.290;7.348;2023-03-17T07:50:27;97963.31;;;20.35;39.62
76156;BME280;64906;51.290;7.348;2023-03-17T07:52:52;97953.97;;;20.36;39.39
76156;BME280;64906;51.290;7.348;2023-03-17T07:55:17;97949.00;;;20.38;39.62
76156;BME280;64906;51.290;7.348;2023-03-17T07:57:43;97946.25;;;20.38;39.30
76156;BME280;64906;51.290;7.348;2023-03-17T08:00:09;97932.56;;;20.38;39.29
76156;BME280;64906;51.290;7.348;2023-03-17T08:02:35;97929.81;;;20.38;39.36
76156;BME280;64906;51.290;7.348;2023-03-17T08:05:02;97923.69;;;20.41;39.55
76156;BME280;64906;51.290;7.348;2023-03-17T08:07:28;97929.97;;;20.41;39.66
76156;BME280;64906;51.290;7.348;2023-03-17T08:09:55;97925.81;;;20.44;39.39
76156;BME280;64906;51.290;7.348;2023-03-17T08:12:20;97932.91;;;20.45;39.42
76156;BME280;64906;51.290;7.348;2023-03-17T08:14:45;97933.72;;;20.45;39.62
76156;BME280;64906;51.290;7.348;2023-03-17T08:17:11;97941.13;;;20.45;39.50
76156;BME280;64906;51.290;7.348;2023-03-17T08:19:37;97941.13;;;20.45;39.57
76156;BME280;64906;51.290;7.348;2023-03-17T08:22:03;97938.06;;;20.46;39.51
76156;BME280;64906;51.290;7.348;2023-03-17T08:24:28;97935.63;;;20.45;39.35
76156;BME280;64906;51.290;7.348;2023-03-17T08:26:54;97942.75;;;20.46;39.63
76156;BME280;64906;51.290;7.348;2023-03-17T08:29:19;97945.00;;;20.44;39.52
76156;BME280;64906;51.290;7.348;2023-03-17T08:31:45;97943.53;;;20.46;39.53
76156;BME280;64906;51.290;7.348;2023-03-17T08:34:10;97949.53;;;20.48;39.26
76156;BME280;64906;51.290;7.348;2023-03-17T08:36:36;97954.69;;;20.50;39.19
76156;BME280;64906;51.290;7.348;2023-03-17T08:39:03;97955.84;;;20.49;39.16
76156;BME280;64906;51.290;7.348;2023-03-17T08:41:29;97957.13;;;20.51;39.29
76156;BME280;64906;51.290;7.348;2023-03-17T08:43:56;97955.84;;;20.49;39.71
76156;BME280;64906;51.290;7.348;2023-03-17T08:46:25;97950.34;;;20.49;39.43
76156;BME280;64906;51.290;7.348;2023-03-17T08:48:52;97949.72;;;20.52;39.47
76156;BME280;64906;51.290;7.348;2023-03-17T08:51:19;97954.38;;;20.51;39.50
76156;BME280;64906;51.290;7.348;2023-03-17T08:53:45;97957.94;;;20.52;39.32
76156;BME280;64906;51.290;7.348;2023-03-17T08:56:11;97954.69;;;20.50;39.58
76156;BME280;64906;51.290;7.348;2023-03-17T08:58:38;97961.31;;;20.49;39.64
76156;BME280;64906;51.290;7.348;2023-03-17T09:01:04;97957.94;;;20.52;39.28
76156;BME280;64906;51.290;7.348;2023-03-17T09:03:30;97954.06;;;20.53;39.29
76156;BME280;64906;51.290;7.348;2023-03-17T09:05:57;97959.75;;;20.56;39.19
76156;BME280;64906;51.290;7.348;2023-03-17T09:08:25;97962.81;;;20.55;39.59
76156;BME280;64906;51.290;7.348;2023-03-17T09:10:51;97955.59;;;20.59;39.31
76156;BME280;64906;51.290;7.348;2023-03-17T09:13:16;97948.34;;;20.63;39.21
76156;BME280;64906;51.290;7.348;2023-03-17T09:15:41;97948.66;;;20.61;39.48
76156;BME280;64906;51.290;7.348;2023-03-17T09:18:07;97943.34;;;20.65;39.14
76156;BME280;64906;51.290;7.348;2023-03-17T09:20:33;97945.91;;;20.61;39.70
76156;BME280;64906;51.290;7.348;2023-03-17T09:22:59;97939.91;;;20.59;39.67
76156;BME280;64906;51.290;7.348;2023-03-17T09:25:25;97940.09;;;20.63;39.37
76156;BME280;64906;51.290;7.348;2023-03-17T09:27:51;97937.25;;;20.68;39.20
76156;BME280;64906;51.290;7.348;2023-03-17T09:30:17;97929.50;;;20.70;39.22
76156;BME280;64906;51.290;7.348;2023-03-17T09:32:43;97936.13;;;20.69;39.15
76156;BME280;64906;51.290;7.348;2023-03-17T09:35:09;97940.63;;;20.65;39.34
76156;BME280;64906;51.290;7.348;2023-03-17T09:37:35;97962.94;;;20.72;39.18
76156;BME280;64906;51.290;7.348;2023-03-17T09:40:01;97968.72;;;20.70;39.17
76156;BME280;64906;51.290;7.348;2023-03-17T09:42:48;97975.50;;;20.73;39.23
76156;BME280;64906;51.290;7.348;2023-03-17T09:48:23;97976.63;;;20.72;39.08
76156;BME280;64906;51.290;7.348;2023-03-17T09:51:04;97977.94;;;20.74;39.22
76156;BME280;64906;51.290;7.348;2023-03-17T09:53:42;97978.75;;;20.75;39.37
76156;BME280;64906;51.290;7.348;2023-03-17T09:56:12;97962.28;;;20.75;39.08
76156;BME280;64906;51.290;7.348;2023-03-17T09:58:41;97956.81;;;20.75;39.04
76156;BME280;64906;51.290;7.348;2023-03-17T10:01:09;97956.00;;;20.74;39.13
76156;BME280;64906;51.290;7.348;2023-03-17T10:03:34;97944.19;;;20.74;39.38
76156;BME280;64906;51.290;7.348;2023-03-17T10:06:32;97943.09;;;20.75;39.06
76156;BME280;64906;51.290;7.348;2023-03-17T10:09:23;97946.66;;;20.75;39.18
76156;BME280;64906;51.290;7.348;2023-03-17T10:12:07;97942.47;;;20.78;39.01
76156;BME280;64906;51.290;7.348;2023-03-17T10:14:40;97940.53;;;20.78;39.11
76156;BME280;64906;51.290;7.348;2023-03-17T10:17:13;97935.06;;;20.78;38.83
76156;BME280;64906;51.290;7.348;2023-03-17T10:19:57;97933.72;;;20.76;39.26
76156;BME280;64906;51.290;7.348;2023-03-17T10:22:45;97947.63;;;20.79;39.10
76156;BME280;64906;51.290;7.348;2023-03-17T10:28:00;97947.63;;;20.79;39.33
76156;BME280;64906;51.290;7.348;2023-03-17T10:30:28;97939.91;;;20.81;38.78
76156;BME280;64906;51.290;7.348;2023-03-17T10:32:56;97942.34;;;20.83;38.87
76156;BME280;64906;51.290;7.348;2023-03-17T10:35:23;97936.84;;;20.83;39.02
76156;BME280;64906;51.290;7.348;2023-03-17T10:37:49;97930.22;;;20.84;39.12
76156;BME280;64906;51.290;7.348;2023-03-17T10:40:26;97930.22;;;20.84;39.13
76156;BME280;64906;51.290;7.348;2023-03-17T10:42:59;97925.06;;;20.82;38.95
76156;BME280;64906;51.290;7.348;2023-03-17T10:45:31;97926.69;;;20.83;39.06
76156;BME280;64906;51.290;7.348;2023-03-17T10:47:59;97925.88;;;20.83;39.06
76156;BME280;64906;51.290;7.348;2023-03-17T10:50:34;97934.09;;;20.83;39.11
76156;BME280;64906;51.290;7.348;2023-03-17T10:53:22;97925.22;;;20.86;38.88
76156;BME280;64906;51.290;7.348;2023-03-17T10:55:59;97921.66;;;20.85;38.94
76156;BME280;64906;51.290;7.348;2023-03-17T11:01:16;97916.38;;;20.89;38.86
76156;BME280;64906;51.290;7.348;2023-03-17T11:03:45;97902.34;;;20.90;38.96
76156;BME280;64906;51.290;7.348;2023-03-17T11:06:13;97903.59;;;20.84;39.10
76156;BME280;64906;51.290;7.348;2023-03-17T11:08:54;97912.19;;;20.91;39.03
76156;BME280;64906;51.290;7.348;2023-03-17T11:11:29;97911.38;;;20.91;39.01
76156;BME280;64906;51.290;7.348;2023-03-17T11:14:10;97914.13;;;20.91;38.71
76156;BME280;64906;51.290;7.348;2023-03-17T11:16:40;97904.47;;;20.93;38.92
76156;BME280;64906;51.290;7.348;2023-03-17T11:19:14;97902.50;;;20.94;39.01
76156;BME280;64906;51.290;7.348;2023-03-17T11:21:52;97904.16;;;20.95;39.12
76156;BME280;64906;51.290;7.348;2023-03-17T11:24:24;97893.69;;;20.97;39.17
76156;BME280;64906;51.290;7.348;2023-03-17T11:29:52;97895.09;;;20.94;38.83
76156;BME280;64906;51.290;7.348;2023-03-17T11:32:38;97905.16;;;20.99;39.04
76156;BME280;64906;51.290;7.348;2023-03-17T11:35:41;97903.00;;;20.96;39.11
76156;BME280;64906;51.290;7.348;2023-03-17T11:38:28;97904.66;;;20.97;39.09
76156;BME280;64906;51.290;7.348;2023-03-17T11:46:27;97902.41;;;20.99;39.05
76156;BME280;64906;51.290;7.348;2023-03-17T11:49:09;97891.44;;;20.99;38.78
76156;BME280;64906;51.290;7.348;2023-03-17T11:51:48;97895.00;;;20.99;38.89
76156;BME280;64906;51.290;7.348;2023-03-17T11:56:51;97885.94;;;20.99;38.90
76156;BME280;64906;51.290;7.348;2023-03-17T11:59:38;97881.78;;;21.01;38.98
76156;BME280;64906;51.290;7.348;2023-03-17T12:05:20;97879.81;;;21.02;38.95
76156;BME280;64906;51.290;7.348;2023-03-17T12:08:09;97888.53;;;21.04;38.62
76156;BME280;64906;51.290;7.348;2023-03-17T12:10:50;97885.47;;;21.05;38.62
76156;BME280;64906;51.290;7.348;2023-03-17T12:13:47;97881.63;;;21.06;38.89
76156;BME280;64906;51.290;7.348;2023-03-17T12:19:06;97874.69;;;21.09;38.69
76156;BME280;64906;51.290;7.348;2023-03-17T12:21:48;97880.16;;;21.09;38.56
76156;BME280;64906;51.290;7.348;2023-03-17T12:24:30;97874.69;;;21.09;38.59
76156;BME280;64906;51.290;7.348;2023-03-17T12:27:02;97873.53;;;21.10;38.79
76156;BME280;64906;51.290;7.348;2023-03-17T12:29:48;97875.50;;;21.09;38.73
76156;BME280;64906;51.290;7.348;2023-03-17T12:32:23;97870.00;;;21.09;38.72
76156;BME280;64906;51.290;7.348;2023-03-17T12:34:53;97868.06;;;21.10;38.72
76156;BME280;64906;51.290;7.348;2023-03-17T12:37:19;97865.00;;;21.11;38.40
76156;BME280;64906;51.290;7.348;2023-03-17T12:42:48;97858.88;;;21.14;38.42
76156;BME280;64906;51.290;7.348;2023-03-17T12:45:22;97861.97;;;21.13;38.43
76156;BME280;64906;51.290;7.348;2023-03-17T12:48:05;97869.03;;;21.14;38.62
76156;BME280;64906;51.290;7.348;2023-03-17T12:50:39;97858.88;;;21.14;38.57
76156;BME280;64906;51.290;7.348;2023-03-17T12:55:48;97855.81;;;21.16;38.80
76156;BME280;64906;51.290;7.348;2023-03-17T12:58:41;97842.56;;;21.18;38.44
76156;BME280;64906;51.290;7.348;2023-03-17T13:04:04;97843.06;;;21.20;38.57
76156;BME280;64906;51.290;7.348;2023-03-17T13:06:35;97836.47;;;21.21;38.33
76156;BME280;64906;51.290;7.348;2023-03-17T13:11:53;97837.75;;;21.23;38.46
76156;BME280;64906;51.290;7.348;2023-03-17T13:14:39;97835.81;;;21.24;38.23
76156;BME280;64906;51.290;7.348;2023-03-17T13:38:37;97816.28;;;21.25;38.30
76156;BME280;64906;51.290;7.348;2023-03-17T13:41:26;97809.97;;;21.25;38.16
76156;BME280;64906;51.290;7.348;2023-03-17T13:48:51;97810.47;;;21.27;38.34
76156;BME280;64906;51.290;7.348;2023-03-17T13:51:20;97803.38;;;21.26;38.42
76156;BME280;64906;51.290;7.348;2023-03-17T13:53:55;97805.78;;;21.27;38.37
76156;BME280;64906;51.290;7.348;2023-03-17T14:01:28;97794.16;;;21.22;38.88
76156;BME280;64906;51.290;7.348;2023-03-17T14:03:57;97790.44;;;21.26;38.81
76156;BME280;64906;51.290;7.348;2023-03-17T14:06:27;97782.03;;;21.23;38.76
76156;BME280;64906;51.290;7.348;2023-03-17T14:09:00;97786.91;;;21.26;38.43
76156;BME280;64906;51.290;7.348;2023-03-17T14:11:40;97788.50;;;21.27;38.76
76156;BME280;64906;51.290;7.348;2023-03-17T14:19:27;97792.41;;;21.26;38.41
76156;BME280;64906;51.290;7.348;2023-03-17T14:21:53;97792.41;;;21.26;38.43
76156;BME280;64906;51.290;7.348;2023-03-17T14:24:21;97800.31;;;21.27;38.47